Time;durP1;ratioP1;P1;durP2;ratioP2;P2;SDS_P1;SDS_P2;PMS_P1;PMS_P2;Temp;Humidity;BMP_temperature;BMP_pressure;BME280_temperature;BME280_humidity;BME280_pressure;Samples;Min_cycle;Max_cycle;Signal;HPM_P1;HPM_P2
2022/12/05 00:01:28;;;;;;;17.60;9.30;;;;;;;;;;10240125;28;20048;-63
2022/12/05 00:06:28;;;;;;;13.70;9.35;;;;;;;;;;10239978;28;20046;-63
2022/12/05 00:11:27;;;;;;;15.25;9.27;;;;;;;;;;10239891;28;20092;-63
2022/12/05 00:16:26;;;;;;;6.93;6.22;;;;;;;;;;10239385;28;20053;-63
2022/12/05 00:21:26;;;;;;;9.63;5.53;;;;;;;;;;10238669;28;20072;-63
2022/12/05 00:26:26;;;;;;;13.48;7.82;;;;;;;;;;10237582;28;20384;-63
2022/12/05 00:31:25;;;;;;;6.05;4.43;;;;;;;;;;10238227;28;20084;-64
2022/12/05 00:36:24;;;;;;;5.85;5.30;;;;;;;;;;10238047;28;20072;-64
2022/12/05 00:41:24;;;;;;;7.10;6.43;;;;;;;;;;10237783;28;20060;-64
2022/12/05 00:46:24;;;;;;;10.75;7.90;;;;;;;;;;10237802;28;20073;-64
2022/12/05 00:51:23;;;;;;;8.80;7.60;;;;;;;;;;10237479;28;20077;-64
2022/12/05 00:56:22;;;;;;;8.40;6.30;;;;;;;;;;10237472;28;20483;-64
2022/12/05 01:01:21;;;;;;;10.68;7.18;;;;;;;;;;10237281;28;20073;-64
2022/12/05 01:06:21;;;;;;;4.40;4.00;;;;;;;;;;10237181;28;20076;-64
2022/12/05 01:11:20;;;;;;;10.82;6.55;;;;;;;;;;10236871;28;20069;-63
2022/12/05 01:16:20;;;;;;;6.32;4.88;;;;;;;;;;10235648;28;20049;-64
2022/12/05 01:21:18;;;;;;;7.43;6.25;;;;;;;;;;10236234;28;20053;-64
2022/12/05 01:26:19;;;;;;;6.28;5.10;;;;;;;;;;10236192;28;20069;-64
2022/12/05 01:31:18;;;;;;;5.53;4.65;;;;;;;;;;10236879;28;20081;-64
2022/12/05 01:36:17;;;;;;;8.75;5.80;;;;;;;;;;10235978;28;20470;-64
2022/12/05 01:41:16;;;;;;;7.43;5.40;;;;;;;;;;10236565;28;20135;-64
2022/12/05 01:46:16;;;;;;;9.80;5.70;;;;;;;;;;10235865;28;20069;-63
2022/12/05 01:51:14;;;;;;;9.13;6.00;;;;;;;;;;10235450;28;20077;-64
2022/12/05 01:56:13;;;;;;;5.60;4.75;;;;;;;;;;10235374;28;20056;-63
2022/12/05 02:01:12;;;;;;;8.73;5.50;;;;;;;;;;10235173;28;20069;-64
2022/12/05 02:06:14;;;;;;;7.95;5.80;;;;;;;;;;10234997;28;20042;-64
2022/12/05 02:11:12;;;;;;;6.10;5.18;;;;;;;;;;10234724;28;20088;-64
2022/12/05 02:16:17;;;;;;;5.32;4.70;;;;;;;;;;10234616;28;20071;-64
2022/12/05 02:21:28;;;;;;;5.35;4.85;;;;;;;;;;10234834;28;20081;-64
2022/12/05 02:26:38;;;;;;;5.95;5.35;;;;;;;;;;10234425;28;20037;-64
2022/12/05 02:31:42;;;;;;;7.10;6.40;;;;;;;;;;10234500;28;20085;-63
2022/12/05 02:36:44;;;;;;;7.13;6.25;;;;;;;;;;10234401;28;20052;-63
2022/12/05 02:41:47;;;;;;;6.50;5.90;;;;;;;;;;10234165;28;20060;-63
2022/12/05 02:46:48;;;;;;;10.10;7.93;;;;;;;;;;10234391;28;20096;-63
2022/12/05 02:51:48;;;;;;;9.00;7.53;;;;;;;;;;10240132;28;20084;-63
2022/12/05 02:56:47;;;;;;;7.82;6.88;;;;;;;;;;10276964;28;20083;-63
2022/12/05 03:01:48;;;;;;;6.93;6.20;;;;;;;;;;10282257;28;20075;-63
2022/12/05 03:06:48;;;;;;;9.82;7.72;;;;;;;;;;10283069;28;20048;-63
2022/12/05 03:11:48;;;;;;;9.00;8.10;;;;;;;;;;10282509;28;20080;-63
2022/12/05 03:16:49;;;;;;;8.60;6.90;;;;;;;;;;10281932;28;20048;-63
2022/12/05 03:21:50;;;;;;;6.75;6.05;;;;;;;;;;10281479;28;20069;-62
2022/12/05 03:26:53;;;;;;;9.43;6.82;;;;;;;;;;10282412;28;20056;-63
2022/12/05 03:31:57;;;;;;;7.25;5.93;;;;;;;;;;10281878;28;20084;-64
2022/12/05 03:36:56;;;;;;;7.20;6.50;;;;;;;;;;10280694;28;20049;-64
2022/12/05 03:41:57;;;;;;;7.38;6.65;;;;;;;;;;10280963;28;20084;-64
2022/12/05 03:47:00;;;;;;;9.48;8.60;;;;;;;;;;10280840;28;20041;-64
2022/12/05 03:52:03;;;;;;;8.55;7.47;;;;;;;;;;10279949;28;20491;-64
2022/12/05 03:57:03;;;;;;;11.63;6.60;;;;;;;;;;10280526;28;20052;-64
2022/12/05 04:02:06;;;;;;;7.72;7.00;;;;;;;;;;10280149;28;20040;-64
2022/12/05 04:07:05;;;;;;;7.28;6.57;;;;;;;;;;10279406;28;20517;-63
2022/12/05 04:12:06;;;;;;;7.70;7.00;;;;;;;;;;10280047;28;20084;-64
2022/12/05 04:17:08;;;;;;;9.88;6.55;;;;;;;;;;10279474;28;20048;-63
2022/12/05 04:22:06;;;;;;;13.15;7.75;;;;;;;;;;10270484;28;20529;-64
2022/12/05 04:27:18;;;;;;;9.48;8.35;;;;;;;;;;10248996;28;20419;-63
2022/12/05 04:32:19;;;;;;;9.25;8.35;;;;;;;;;;10238986;28;20088;-63
2022/12/05 04:37:18;;;;;;;9.32;8.40;;;;;;;;;;10237941;28;20077;-64
2022/12/05 04:42:19;;;;;;;12.13;10.05;;;;;;;;;;10237963;28;20119;-64
2022/12/05 04:47:19;;;;;;;10.18;8.32;;;;;;;;;;10238754;28;20044;-64
2022/12/05 04:52:18;;;;;;;13.48;9.20;;;;;;;;;;10254423;28;20048;-64
2022/12/05 04:57:17;;;;;;;11.88;10.68;;;;;;;;;;10278677;28;20084;-63
2022/12/05 05:02:18;;;;;;;11.48;10.30;;;;;;;;;;10277412;28;20045;-64
2022/12/05 05:07:18;;;;;;;26.33;11.07;;;;;;;;;;10277978;28;20151;-64
2022/12/05 05:12:16;;;;;;;12.43;8.40;;;;;;;;;;10258867;28;20072;-64
2022/12/05 05:17:16;;;;;;;11.25;9.95;;;;;;;;;;10257940;28;20152;-63
2022/12/05 05:22:14;;;;;;;24.10;18.52;;;;;;;;;;10277382;28;20045;-63
2022/12/05 05:27:14;;;;;;;13.23;11.73;;;;;;;;;;10276991;28;20381;-64
2022/12/05 05:32:12;;;;;;;13.13;10.48;;;;;;;;;;10259515;28;20506;-64
2022/12/05 05:37:10;;;;;;;9.80;7.38;;;;;;;;;;10273555;28;20517;-64
2022/12/05 05:42:08;;;;;;;8.27;7.47;;;;;;;;;;10275370;28;20072;-64
2022/12/05 05:47:08;;;;;;;11.90;10.27;;;;;;;;;;10275113;28;20061;-64
2022/12/05 05:52:06;;;;;;;21.67;16.13;;;;;;;;;;10276192;28;20084;-64
2022/12/05 05:57:04;;;;;;;26.23;14.80;;;;;;;;;;10273464;28;20069;-65
2022/12/05 06:02:03;;;;;;;8.07;7.28;;;;;;;;;;10274808;28;20076;-63
2022/12/05 06:07:02;;;;;;;8.10;7.30;;;;;;;;;;10261295;28;20317;-63
2022/12/05 06:12:00;;;;;;;7.90;7.10;;;;;;;;;;10255986;28;20588;-63
2022/12/05 06:16:59;;;;;;;7.75;7.03;;;;;;;;;;10253831;28;20079;-63
2022/12/05 06:21:57;;;;;;;7.22;6.47;;;;;;;;;;10257015;28;20052;-63
2022/12/05 06:26:56;;;;;;;8.50;7.68;;;;;;;;;;10235171;28;20049;-63
2022/12/05 06:31:54;;;;;;;9.60;8.55;;;;;;;;;;10242308;28;20083;-63
2022/12/05 06:36:53;;;;;;;8.95;8.05;;;;;;;;;;10254416;28;20065;-63
2022/12/05 06:41:51;;;;;;;7.78;7.00;;;;;;;;;;10258962;28;20083;-64
2022/12/05 06:46:50;;;;;;;9.00;8.10;;;;;;;;;;10274529;28;20049;-64
2022/12/05 06:51:49;;;;;;;9.50;8.45;;;;;;;;;;10253201;28;20080;-63
2022/12/05 06:56:47;;;;;;;10.40;9.25;;;;;;;;;;10240120;28;20053;-63
2022/12/05 07:01:45;;;;;;;11.65;10.43;;;;;;;;;;10234022;28;20042;-63
2022/12/05 07:06:47;;;;;;;10.63;8.20;;;;;;;;;;10234073;28;20081;-63
2022/12/05 07:11:48;;;;;;;16.40;12.95;;;;;;;;;;10233747;28;20077;-63
2022/12/05 07:16:46;;;;;;;23.95;17.30;;;;;;;;;;10233398;28;20183;-63
2022/12/05 07:21:46;;;;;;;11.70;9.70;;;;;;;;;;10233587;28;20475;-62
2022/12/05 07:26:44;;;;;;;13.35;11.57;;;;;;;;;;10236195;28;20414;-63
2022/12/05 07:31:42;;;;;;;11.30;10.20;;;;;;;;;;10242079;28;20088;-63
2022/12/05 07:36:40;;;;;;;22.95;17.23;;;;;;;;;;10238233;28;20053;-63
2022/12/05 07:41:40;;;;;;;12.30;11.13;;;;;;;;;;10258394;28;20045;-63
2022/12/05 07:46:39;;;;;;;22.38;18.70;;;;;;;;;;10266761;28;20073;-63
2022/12/05 07:51:37;;;;;;;52.17;34.38;;;;;;;;;;10263016;28;20087;-64
2022/12/05 07:56:36;;;;;;;25.17;20.27;;;;;;;;;;10259695;28;20056;-63
2022/12/05 08:01:35;;;;;;;10.65;9.55;;;;;;;;;;10270899;28;20510;-64
2022/12/05 08:06:34;;;;;;;10.02;9.10;;;;;;;;;;10248051;28;20111;-63
2022/12/05 08:11:34;;;;;;;18.95;16.05;;;;;;;;;;10270458;28;20076;-64
2022/12/05 08:16:33;;;;;;;18.83;16.80;;;;;;;;;;10273476;28;20077;-64
2022/12/05 08:21:33;;;;;;;12.43;11.23;;;;;;;;;;10268897;28;20069;-64
2022/12/05 08:26:31;;;;;;;10.35;9.30;;;;;;;;;;10238996;28;20045;-63
2022/12/05 08:31:31;;;;;;;14.25;12.75;;;;;;;;;;10238647;28;20068;-65
2022/12/05 08:36:30;;;;;;;15.25;13.75;;;;;;;;;;10240947;28;20073;-62
2022/12/05 08:41:29;;;;;;;10.32;9.15;;;;;;;;;;10239882;28;20073;-64
2022/12/05 08:46:28;;;;;;;13.30;11.15;;;;;;;;;;10236169;28;20049;-63
2022/12/05 08:51:26;;;;;;;53.50;32.63;;;;;;;;;;10274924;28;20403;-63
2022/12/05 08:56:25;;;;;;;22.25;18.85;;;;;;;;;;10275113;28;20064;-63
2022/12/05 09:01:29;;;;;;;14.23;12.85;;;;;;;;;;10255929;28;20497;-63
2022/12/05 09:06:28;;;;;;;58.28;46.78;;;;;;;;;;10254948;28;20060;-62
2022/12/05 09:11:27;;;;;;;12.57;11.30;;;;;;;;;;10255705;28;20072;-63
2022/12/05 09:16:29;;;;;;;10.80;9.20;;;;;;;;;;10270913;28;20072;-62
2022/12/05 09:21:36;;;;;;;17.05;13.68;;;;;;;;;;10277443;28;20049;-63
2022/12/05 09:26:34;;;;;;;15.57;13.95;;;;;;;;;;10259872;28;20451;-64
2022/12/05 09:31:35;;;;;;;11.32;10.07;;;;;;;;;;10268556;28;20045;-64
2022/12/05 09:36:33;;;;;;;22.10;19.75;;;;;;;;;;10235323;28;20050;-64
2022/12/05 09:42:06;;;;;;;20.42;18.25;;;;;;;;;;10243987;28;20080;-64
2022/12/05 09:47:11;;;;;;;14.43;12.93;;;;;;;;;;10256822;28;20452;-63
2022/12/05 09:52:11;;;;;;;14.80;12.60;;;;;;;;;;10248985;28;20550;-65
2022/12/05 09:57:10;;;;;;;29.35;24.38;;;;;;;;;;10239815;28;20084;-64
2022/12/05 10:02:22;;;;;;;56.45;33.55;;;;;;;;;;10257872;28;20203;-65
2022/12/05 10:07:22;;;;;;;15.85;12.70;;;;;;;;;;10245889;28;20576;-63
2022/12/05 10:12:28;;;;;;;47.05;27.15;;;;;;;;;;10234356;28;20077;-65
2022/12/05 10:17:31;;;;;;;25.38;19.75;;;;;;;;;;10259316;28;20079;-64
2022/12/05 10:22:33;;;;;;;35.80;25.67;;;;;;;;;;10248109;28;20083;-63
2022/12/05 10:27:34;;;;;;;60.17;40.67;;;;;;;;;;10251065;28;20099;-65
2022/12/05 10:32:41;;;;;;;36.20;27.48;;;;;;;;;;10270770;28;20081;-62
2022/12/05 10:37:39;;;;;;;16.45;14.75;;;;;;;;;;10253788;28;20509;-63
2022/12/05 10:42:38;;;;;;;30.55;22.25;;;;;;;;;;10239937;28;20080;-64
2022/12/05 10:47:36;;;;;;;21.27;15.68;;;;;;;;;;10245105;28;20076;-64
2022/12/05 10:52:36;;;;;;;15.52;12.65;;;;;;;;;;10244303;28;20115;-63
2022/12/05 10:57:34;;;;;;;17.90;13.05;;;;;;;;;;10241637;28;20092;-65
2022/12/05 11:02:33;;;;;;;19.50;16.10;;;;;;;;;;10242108;28;20603;-64
2022/12/05 11:07:32;;;;;;;24.20;18.00;;;;;;;;;;10261153;28;20145;-64
2022/12/05 11:12:38;;;;;;;14.82;11.75;;;;;;;;;;10260456;28;20077;-63
2022/12/05 11:17:37;;;;;;;35.38;22.70;;;;;;;;;;10249777;28;20079;-64
2022/12/05 11:22:35;;;;;;;39.70;28.35;;;;;;;;;;10271125;28;20064;-62
2022/12/05 11:27:34;;;;;;;67.05;34.53;;;;;;;;;;10249128;28;20563;-64
2022/12/05 11:32:35;;;;;;;25.85;18.05;;;;;;;;;;10250059;28;20069;-63
2022/12/05 11:37:36;;;;;;;17.30;14.50;;;;;;;;;;10256073;28;20069;-65
2022/12/05 11:42:41;;;;;;;22.88;16.25;;;;;;;;;;10262416;28;20462;-64
2022/12/05 11:47:45;;;;;;;16.87;15.07;;;;;;;;;;10252586;28;20069;-63
2022/12/05 11:52:51;;;;;;;14.05;12.40;;;;;;;;;;10262325;28;20390;-63
2022/12/05 11:57:57;;;;;;;12.30;11.07;;;;;;;;;;10251459;28;20080;-64
2022/12/05 12:03:16;;;;;;;11.57;10.38;;;;;;;;;;10253861;28;20080;-64
2022/12/05 12:08:19;;;;;;;10.70;9.27;;;;;;;;;;10259019;28;20076;-64
2022/12/05 12:13:28;;;;;;;11.70;10.60;;;;;;;;;;10251335;28;20069;-64
2022/12/05 12:18:39;;;;;;;14.95;12.50;;;;;;;;;;10259122;28;20072;-64
2022/12/05 12:23:42;;;;;;;13.60;12.27;;;;;;;;;;10258667;28;20061;-63
2022/12/05 12:28:46;;;;;;;14.35;11.95;;;;;;;;;;10258268;28;20045;-63
2022/12/05 12:33:51;;;;;;;30.05;22.75;;;;;;;;;;10259000;28;20080;-63
2022/12/05 12:38:50;;;;;;;;;;;;;;;;;;10265909;28;20145;-64
2022/12/05 12:43:54;;;;;;;13.40;11.93;;;;;;;;;;10253794;28;19949;-65
2022/12/05 12:49:04;;;;;;;15.52;13.82;;;;;;;;;;10256436;28;20076;-64
2022/12/05 12:54:12;;;;;;;37.17;24.20;;;;;;;;;;10256662;28;20081;-63
2022/12/05 12:59:29;;;;;;;22.77;20.15;;;;;;;;;;10257371;28;20148;-63
2022/12/05 13:04:32;;;;;;;37.50;25.67;;;;;;;;;;10237289;28;20503;-64
2022/12/05 13:09:33;;;;;;;17.70;15.90;;;;;;;;;;10254422;28;20080;-64
2022/12/05 13:14:32;;;;;;;15.38;13.77;;;;;;;;;;10258269;28;20494;-63
2022/12/05 13:19:37;;;;;;;17.95;13.73;;;;;;;;;;10270958;28;20041;-64
2022/12/05 13:24:35;;;;;;;13.98;12.50;;;;;;;;;;10262836;28;20064;-64
2022/12/05 13:29:34;;;;;;;27.85;21.73;;;;;;;;;;10261206;28;20076;-63
2022/12/05 13:34:45;;;;;;;27.00;21.00;;;;;;;;;;10248091;28;20084;-64
2022/12/05 13:45:08;;;;;;;33.58;27.70;;;;;;;;;;10240916;28;20077;-64
2022/12/05 13:50:13;;;;;;;38.08;33.58;;;;;;;;;;10245033;28;20529;-63
2022/12/05 13:55:19;;;;;;;37.72;30.02;;;;;;;;;;10244577;28;20533;-63
2022/12/05 14:00:28;;;;;;;37.13;29.75;;;;;;;;;;10246813;28;20084;-65
2022/12/05 14:05:41;;;;;;;48.83;38.58;;;;;;;;;;10247409;28;20073;-65
2022/12/05 14:10:54;;;;;;;41.17;36.75;;;;;;;;;;10243807;28;20073;-63
2022/12/05 14:15:54;;;;;;;45.55;39.05;;;;;;;;;;10250555;28;20083;-64
2022/12/05 14:20:58;;;;;;;39.35;33.60;;;;;;;;;;10245704;28;20073;-64
2022/12/05 14:26:03;;;;;;;37.58;29.90;;;;;;;;;;10253357;28;20069;-64
2022/12/05 14:31:14;;;;;;;28.88;22.52;;;;;;;;;;10245885;28;20064;-64
2022/12/05 14:36:16;;;;;;;25.42;22.23;;;;;;;;;;10248857;28;20075;-65
2022/12/05 14:41:16;;;;;;;32.17;26.45;;;;;;;;;;10240369;28;20084;-64
2022/12/05 14:46:16;;;;;;;28.77;24.95;;;;;;;;;;10236663;28;20069;-63
2022/12/05 14:51:33;;;;;;;33.67;26.02;;;;;;;;;;10241036;28;20046;-63
2022/12/05 14:56:34;;;;;;;37.38;28.05;;;;;;;;;;10241515;28;20069;-64
2022/12/05 15:01:35;;;;;;;39.53;32.08;;;;;;;;;;10241329;28;20522;-64
2022/12/05 15:06:34;;;;;;;41.10;33.97;;;;;;;;;;10242348;28;20064;-64
2022/12/05 15:11:34;;;;;;;40.33;30.02;;;;;;;;;;10241404;28;20084;-65
2022/12/05 15:16:39;;;;;;;32.42;28.70;;;;;;;;;;10241610;28;20077;-64
2022/12/05 15:21:39;;;;;;;32.63;28.02;;;;;;;;;;10241420;28;20045;-65
2022/12/05 15:26:40;;;;;;;57.50;42.05;;;;;;;;;;10240075;28;20061;-64
2022/12/05 15:31:45;;;;;;;53.03;38.58;;;;;;;;;;10241688;28;20057;-64
2022/12/05 15:36:45;;;;;;;53.30;35.83;;;;;;;;;;10240601;28;20077;-64
2022/12/05 15:41:45;;;;;;;54.75;40.55;;;;;;;;;;10260154;28;20077;-65
2022/12/05 15:46:43;;;;;;;52.90;42.35;;;;;;;;;;10240375;28;20084;-65
2022/12/05 15:51:42;;;;;;;63.00;39.50;;;;;;;;;;10244848;28;20170;-64
2022/12/05 15:56:42;;;;;;;55.85;40.58;;;;;;;;;;10279912;28;20073;-64
2022/12/05 16:01:43;;;;;;;45.20;31.10;;;;;;;;;;10279178;28;20045;-66
2022/12/05 16:06:46;;;;;;;43.58;34.55;;;;;;;;;;10270863;28;20095;-64
2022/12/05 16:11:51;;;;;;;114.70;77.10;;;;;;;;;;10276996;28;20052;-64
2022/12/05 16:16:54;;;;;;;45.88;35.97;;;;;;;;;;10279145;28;20084;-64
2022/12/05 16:22:00;;;;;;;44.38;33.22;;;;;;;;;;10279739;28;20509;-63
2022/12/05 16:26:59;;;;;;;45.20;32.47;;;;;;;;;;10279993;28;20518;-64
2022/12/05 16:32:00;;;;;;;55.35;36.95;;;;;;;;;;10279160;28;20075;-65
2022/12/05 16:36:59;;;;;;;53.22;36.60;;;;;;;;;;10279218;28;20281;-64
2022/12/05 16:41:58;;;;;;;49.95;34.22;;;;;;;;;;10274354;28;20108;-64
2022/12/05 16:46:56;;;;;;;40.03;30.08;;;;;;;;;;10264795;28;20050;-63
2022/12/05 16:51:59;;;;;;;38.13;26.33;;;;;;;;;;10238653;28;20053;-63
2022/12/05 16:56:58;;;;;;;47.50;33.05;;;;;;;;;;10247083;28;20085;-65
2022/12/05 17:01:57;;;;;;;55.17;37.85;;;;;;;;;;10244806;28;20446;-63
2022/12/05 17:06:56;;;;;;;48.30;33.15;;;;;;;;;;10251184;28;20068;-65
2022/12/05 17:12:00;;;;;;;50.13;35.22;;;;;;;;;;10276975;28;20044;-64
2022/12/05 17:16:58;;;;;;;44.47;31.13;;;;;;;;;;10258327;28;20080;-64
2022/12/05 17:22:01;;;;;;;55.58;31.17;;;;;;;;;;10253297;28;20077;-64
2022/12/05 17:26:59;;;;;;;40.58;30.70;;;;;;;;;;10250776;28;20076;-64
2022/12/05 17:31:57;;;;;;;53.58;32.10;;;;;;;;;;10249110;28;20072;-64
2022/12/05 17:36:55;;;;;;;74.07;43.88;;;;;;;;;;10253445;28;20073;-62
2022/12/05 17:41:55;;;;;;;80.57;45.38;;;;;;;;;;10247010;28;20081;-63
2022/12/05 17:46:53;;;;;;;83.28;50.10;;;;;;;;;;10245579;28;20467;-64
2022/12/05 17:51:52;;;;;;;75.57;40.53;;;;;;;;;;10256854;28;20065;-65
2022/12/05 17:57:12;;;;;;;62.78;38.08;;;;;;;;;;10248469;28;20080;-64
2022/12/05 18:02:11;;;;;;;51.47;30.30;;;;;;;;;;10243131;28;20077;-65
2022/12/05 18:07:09;;;;;;;68.47;38.17;;;;;;;;;;10253583;28;20061;-64
2022/12/05 18:12:07;;;;;;;50.17;31.45;;;;;;;;;;10258003;28;20463;-64
2022/12/05 18:17:07;;;;;;;54.22;34.42;;;;;;;;;;10263114;28;20060;-64
2022/12/05 18:22:05;;;;;;;70.35;42.65;;;;;;;;;;10252400;28;20490;-64
2022/12/05 18:27:03;;;;;;;57.75;39.90;;;;;;;;;;10254181;28;20080;-64
2022/12/05 18:32:01;;;;;;;52.50;36.47;;;;;;;;;;10249436;28;20064;-64
2022/12/05 18:37:01;;;;;;;46.50;33.25;;;;;;;;;;10250344;28;20083;-64
2022/12/05 18:42:00;;;;;;;53.75;34.60;;;;;;;;;;10250850;28;20117;-65
2022/12/05 18:46:58;;;;;;;45.03;33.60;;;;;;;;;;10262100;28;20443;-64
2022/12/05 18:51:56;;;;;;;35.75;27.50;;;;;;;;;;10237386;28;20065;-63
2022/12/05 18:56:56;;;;;;;40.75;29.25;;;;;;;;;;10253402;28;20085;-65
2022/12/05 19:01:54;;;;;;;36.97;28.27;;;;;;;;;;10251878;28;20507;-63
2022/12/05 19:06:53;;;;;;;46.58;34.10;;;;;;;;;;10262345;28;20045;-64
2022/12/05 19:11:53;;;;;;;49.47;34.70;;;;;;;;;;10241021;28;20068;-64
2022/12/05 19:16:54;;;;;;;50.78;37.30;;;;;;;;;;10247228;28;20065;-64
2022/12/05 19:21:58;;;;;;;62.30;45.00;;;;;;;;;;10241811;28;20068;-66
2022/12/05 19:26:56;;;;;;;57.80;38.40;;;;;;;;;;10250121;28;20079;-64
2022/12/05 19:31:57;;;;;;;39.88;29.88;;;;;;;;;;10252266;28;20143;-64
2022/12/05 19:36:55;;;;;;;37.65;27.77;;;;;;;;;;10255980;28;20081;-67
2022/12/05 19:41:56;;;;;;;36.38;28.38;;;;;;;;;;10252672;28;20080;-63
2022/12/05 19:46:54;;;;;;;44.85;33.97;;;;;;;;;;10260341;28;20087;-64
2022/12/05 19:51:54;;;;;;;40.92;30.67;;;;;;;;;;10280088;28;20072;-64
2022/12/05 19:56:56;;;;;;;36.28;28.35;;;;;;;;;;10273171;28;20073;-63
2022/12/05 20:01:55;;;;;;;35.55;28.45;;;;;;;;;;10240146;28;20077;-63
2022/12/05 20:06:55;;;;;;;54.50;36.85;;;;;;;;;;10240422;28;20423;-64
2022/12/05 20:11:53;;;;;;;43.60;35.03;;;;;;;;;;10256609;28;20104;-64
2022/12/05 20:16:53;;;;;;;42.85;32.13;;;;;;;;;;10258987;28;20077;-63
2022/12/05 20:21:54;;;;;;;34.13;27.13;;;;;;;;;;10247389;28;20479;-64
2022/12/05 20:26:53;;;;;;;30.00;23.45;;;;;;;;;;10238925;28;20068;-64
2022/12/05 20:31:55;;;;;;;28.40;22.65;;;;;;;;;;10243457;28;20053;-63
2022/12/05 20:36:53;;;;;;;32.17;24.83;;;;;;;;;;10240845;28;20495;-63
2022/12/05 20:41:53;;;;;;;40.03;29.75;;;;;;;;;;10260879;28;20071;-63
2022/12/05 20:46:52;;;;;;;37.90;29.23;;;;;;;;;;10275495;28;20060;-65
2022/12/05 20:51:50;;;;;;;29.00;21.50;;;;;;;;;;10254247;28;20049;-63
2022/12/05 20:56:49;;;;;;;95.00;48.42;;;;;;;;;;10240603;28;20542;-63
2022/12/05 21:01:48;;;;;;;54.08;36.90;;;;;;;;;;10240539;28;20069;-64
2022/12/05 21:06:48;;;;;;;31.63;21.58;;;;;;;;;;10242281;28;20511;-64
2022/12/05 21:11:46;;;;;;;25.70;21.73;;;;;;;;;;10242543;28;20041;-63
2022/12/05 21:16:44;;;;;;;23.70;20.63;;;;;;;;;;10242669;28;20080;-62
2022/12/05 21:21:44;;;;;;;29.20;23.02;;;;;;;;;;10246975;28;20070;-63
2022/12/05 21:26:42;;;;;;;31.02;20.27;;;;;;;;;;10255010;28;20040;-63
2022/12/05 21:31:42;;;;;;;25.35;19.77;;;;;;;;;;10254718;28;20617;-63
2022/12/05 21:36:40;;;;;;;42.47;28.33;;;;;;;;;;10270935;28;20099;-62
2022/12/05 21:41:39;;;;;;;31.73;24.08;;;;;;;;;;10260898;28;20083;-63
2022/12/05 21:46:38;;;;;;;25.88;21.55;;;;;;;;;;10255540;28;20069;-64
2022/12/05 21:51:36;;;;;;;25.77;20.25;;;;;;;;;;10255126;28;20045;-62
2022/12/05 21:56:34;;;;;;;21.52;19.02;;;;;;;;;;10252996;28;20458;-63
2022/12/05 22:01:34;;;;;;;24.88;20.88;;;;;;;;;;10243510;28;20487;-63
2022/12/05 22:06:33;;;;;;;28.63;25.30;;;;;;;;;;10239880;28;20521;-63
2022/12/05 22:11:32;;;;;;;28.60;23.67;;;;;;;;;;10254870;28;20510;-63
2022/12/05 22:16:30;;;;;;;29.75;23.40;;;;;;;;;;10253968;28;20526;-63
2022/12/05 22:21:32;;;;;;;29.83;25.27;;;;;;;;;;10247561;28;20076;-64
2022/12/05 22:26:31;;;;;;;28.00;22.70;;;;;;;;;;10252192;28;20075;-63
2022/12/05 22:31:29;;;;;;;25.67;20.65;;;;;;;;;;10247678;28;20077;-63
2022/12/05 22:36:27;;;;;;;31.23;25.63;;;;;;;;;;10234393;28;20069;-64
2022/12/05 22:41:27;;;;;;;27.90;20.42;;;;;;;;;;10234099;28;20515;-64
2022/12/05 22:46:26;;;;;;;18.52;15.93;;;;;;;;;;10234229;28;20491;-63
2022/12/05 22:51:26;;;;;;;19.42;16.05;;;;;;;;;;10233397;28;20049;-62
2022/12/05 22:56:25;;;;;;;24.20;18.88;;;;;;;;;;10230405;28;20116;-64
2022/12/05 23:01:26;;;;;;;20.55;17.80;;;;;;;;;;10230140;28;20174;-63
2022/12/05 23:06:24;;;;;;;31.45;20.92;;;;;;;;;;10232370;28;20526;-63
2022/12/05 23:11:23;;;;;;;61.50;34.88;;;;;;;;;;10242006;28;20045;-63
2022/12/05 23:16:23;;;;;;;43.78;28.40;;;;;;;;;;10241723;28;20049;-63
2022/12/05 23:21:24;;;;;;;39.55;26.65;;;;;;;;;;10241409;28;20666;-64
2022/12/05 23:26:24;;;;;;;30.02;23.02;;;;;;;;;;10242574;28;20077;-64
2022/12/05 23:31:22;;;;;;;27.40;20.55;;;;;;;;;;10278740;28;20064;-64
2022/12/05 23:36:20;;;;;;;29.40;22.92;;;;;;;;;;10281651;28;20509;-64
2022/12/05 23:41:21;;;;;;;26.08;19.88;;;;;;;;;;10281586;28;20080;-65
2022/12/05 23:46:21;;;;;;;24.80;21.35;;;;;;;;;;10281195;28;20054;-64
2022/12/05 23:51:20;;;;;;;26.30;21.92;;;;;;;;;;10280804;28;20041;-64
2022/12/05 23:56:21;;;;;;;32.60;24.13;;;;;;;;;;10280817;28;20092;-63
